sensor_id;sensor_type;location;lat;lon;timestamp;pressure;altitude;pressure_sealevel;temperature;humidity
35291;BME280;21411;50.024;19.220;2023-03-18T00:00:27;99157.98;;;1.97;68.45
35291;BME280;21411;50.024;19.220;2023-03-18T00:03:13;99152.90;;;1.97;68.47
35291;BME280;21411;50.024;19.220;2023-03-18T00:05:41;99153.23;;;1.97;68.63
35291;BME280;21411;50.024;19.220;2023-03-18T00:08:07;99154.96;;;1.98;68.67
35291;BME280;21411;50.024;19.220;2023-03-18T00:10:35;99159.17;;;1.98;68.65
35291;BME280;21411;50.024;19.220;2023-03-18T00:13:02;99157.77;;;1.98;68.76
35291;BME280;21411;50.024;19.220;2023-03-18T00:15:30;99162.69;;;1.98;68.86
35291;BME280;21411;50.024;19.220;2023-03-18T00:17:57;99167.20;;;1.99;68.93
35291;BME280;21411;50.024;19.220;2023-03-18T00:20:25;99164.58;;;1.98;68.92
35291;BME280;21411;50.024;19.220;2023-03-18T00:23:06;99161.98;;;1.97;69.05
35291;BME280;21411;50.024;19.220;2023-03-18T00:25:35;99163.24;;;1.96;69.11
35291;BME280;21411;50.024;19.220;2023-03-18T00:28:04;99161.88;;;1.95;69.24
35291;BME280;21411;50.024;19.220;2023-03-18T00:30:31;99164.21;;;1.94;69.33
35291;BME280;21411;50.024;19.220;2023-03-18T00:32:58;99163.75;;;1.91;69.38
35291;BME280;21411;50.024;19.220;2023-03-18T00:35:26;99159.46;;;1.88;69.48
35291;BME280;21411;50.024;19.220;2023-03-18T00:37:53;99155.49;;;1.86;69.54
35291;BME280;21411;50.024;19.220;2023-03-18T00:40:21;99156.10;;;1.84;69.66
35291;BME280;21411;50.024;19.220;2023-03-18T00:42:53;99153.88;;;1.81;69.71
35291;BME280;21411;50.024;19.220;2023-03-18T00:45:27;99149.93;;;1.79;69.84
35291;BME280;21411;50.024;19.220;2023-03-18T00:47:53;99143.88;;;1.76;69.79
35291;BME280;21411;50.024;19.220;2023-03-18T00:50:20;99140.07;;;1.74;69.82
35291;BME280;21411;50.024;19.220;2023-03-18T00:52:47;99141.11;;;1.75;69.92
35291;BME280;21411;50.024;19.220;2023-03-18T00:55:14;99135.98;;;1.76;70.01
35291;BME280;21411;50.024;19.220;2023-03-18T00:57:41;99130.19;;;1.77;70.10
35291;BME280;21411;50.024;19.220;2023-03-18T01:00:08;99123.91;;;1.76;70.20
35291;BME280;21411;50.024;19.220;2023-03-18T01:02:35;99122.02;;;1.74;70.41
35291;BME280;21411;50.024;19.220;2023-03-18T01:05:03;99118.89;;;1.73;70.58
35291;BME280;21411;50.024;19.220;2023-03-18T01:07:30;99122.12;;;1.71;70.76
35291;BME280;21411;50.024;19.220;2023-03-18T01:09:57;99121.52;;;1.67;70.96
35291;BME280;21411;50.024;19.220;2023-03-18T01:12:23;99118.10;;;1.65;71.07
35291;BME280;21411;50.024;19.220;2023-03-18T01:14:50;99112.55;;;1.63;71.28
35291;BME280;21411;50.024;19.220;2023-03-18T01:17:17;99109.09;;;1.61;71.39
35291;BME280;21411;50.024;19.220;2023-03-18T01:19:44;99105.48;;;1.59;71.65
35291;BME280;21411;50.024;19.220;2023-03-18T01:22:10;99103.08;;;1.57;71.85
35291;BME280;21411;50.024;19.220;2023-03-18T01:24:37;99100.91;;;1.54;71.99
35291;BME280;21411;50.024;19.220;2023-03-18T01:27:04;99100.86;;;1.49;72.22
35291;BME280;21411;50.024;19.220;2023-03-18T01:29:31;99103.45;;;1.44;72.32
35291;BME280;21411;50.024;19.220;2023-03-18T01:31:58;99105.34;;;1.40;72.50
35291;BME280;21411;50.024;19.220;2023-03-18T01:34:25;99098.84;;;1.33;72.64
35291;BME280;21411;50.024;19.220;2023-03-18T01:36:52;99097.91;;;1.29;72.83
35291;BME280;21411;50.024;19.220;2023-03-18T01:39:19;99104.48;;;1.26;72.98
35291;BME280;21411;50.024;19.220;2023-03-18T01:41:46;99101.59;;;1.22;73.14
35291;BME280;21411;50.024;19.220;2023-03-18T01:44:20;99104.11;;;1.20;73.27
35291;BME280;21411;50.024;19.220;2023-03-18T01:46:48;99101.73;;;1.17;73.37
35291;BME280;21411;50.024;19.220;2023-03-18T01:49:25;99101.25;;;1.16;73.41
35291;BME280;21411;50.024;19.220;2023-03-18T01:52:24;99102.70;;;1.14;73.43
35291;BME280;21411;50.024;19.220;2023-03-18T01:54:58;99098.34;;;1.13;73.46
35291;BME280;21411;50.024;19.220;2023-03-18T01:57:26;99097.16;;;1.12;73.54
35291;BME280;21411;50.024;19.220;2023-03-18T01:59:54;99095.95;;;1.11;73.77
35291;BME280;21411;50.024;19.220;2023-03-18T02:02:21;99090.67;;;1.13;73.76
35291;BME280;21411;50.024;19.220;2023-03-18T02:04:51;99087.88;;;1.13;73.81
35291;BME280;21411;50.024;19.220;2023-03-18T02:09:49;99088.81;;;1.10;74.07
35291;BME280;21411;50.024;19.220;2023-03-18T02:12:21;99090.09;;;1.08;74.20
35291;BME280;21411;50.024;19.220;2023-03-18T02:14:50;99088.18;;;1.07;74.26
35291;BME280;21411;50.024;19.220;2023-03-18T02:17:24;99088.39;;;1.06;74.32
35291;BME280;21411;50.024;19.220;2023-03-18T02:20:19;99092.37;;;1.01;74.51
35291;BME280;21411;50.024;19.220;2023-03-18T02:22:56;99095.50;;;0.96;74.56
35291;BME280;21411;50.024;19.220;2023-03-18T02:25:41;99091.82;;;0.89;74.74
35291;BME280;21411;50.024;19.220;2023-03-18T02:28:13;99088.77;;;0.85;74.93
35291;BME280;21411;50.024;19.220;2023-03-18T02:30:46;99090.77;;;0.83;75.04
35291;BME280;21411;50.024;19.220;2023-03-18T02:33:15;99091.37;;;0.80;75.21
35291;BME280;21411;50.024;19.220;2023-03-18T02:35:44;99089.66;;;0.78;75.30
35291;BME280;21411;50.024;19.220;2023-03-18T02:38:11;99087.98;;;0.76;75.43
35291;BME280;21411;50.024;19.220;2023-03-18T02:40:40;99083.30;;;0.74;75.68
35291;BME280;21411;50.024;19.220;2023-03-18T02:48:20;99076.02;;;0.64;76.16
35291;BME280;21411;50.024;19.220;2023-03-18T02:50:48;99075.42;;;0.60;76.30
35291;BME280;21411;50.024;19.220;2023-03-18T02:53:15;99074.98;;;0.57;76.36
35291;BME280;21411;50.024;19.220;2023-03-18T02:55:42;99078.77;;;0.52;76.56
35291;BME280;21411;50.024;19.220;2023-03-18T02:58:09;99076.80;;;0.47;76.84
35291;BME280;21411;50.024;19.220;2023-03-18T03:00:42;99079.50;;;0.43;77.14
35291;BME280;21411;50.024;19.220;2023-03-18T03:03:08;99077.84;;;0.40;77.21
35291;BME280;21411;50.024;19.220;2023-03-18T03:05:35;99078.61;;;0.37;77.44
35291;BME280;21411;50.024;19.220;2023-03-18T03:08:02;99079.68;;;0.36;77.70
35291;BME280;21411;50.024;19.220;2023-03-18T03:10:29;99076.94;;;0.34;77.75
35291;BME280;21411;50.024;19.220;2023-03-18T03:12:56;99079.80;;;0.32;77.94
35291;BME280;21411;50.024;19.220;2023-03-18T03:15:23;99080.52;;;0.31;78.07
35291;BME280;21411;50.024;19.220;2023-03-18T03:17:50;99079.00;;;0.28;78.21
35291;BME280;21411;50.024;19.220;2023-03-18T03:20:17;99081.16;;;0.26;78.45
35291;BME280;21411;50.024;19.220;2023-03-18T03:22:44;99078.23;;;0.24;78.64
35291;BME280;21411;50.024;19.220;2023-03-18T03:25:11;99082.61;;;0.24;78.68
35291;BME280;21411;50.024;19.220;2023-03-18T03:27:37;99086.48;;;0.23;78.97
35291;BME280;21411;50.024;19.220;2023-03-18T03:30:07;99087.37;;;0.22;79.19
35291;BME280;21411;50.024;19.220;2023-03-18T03:32:35;99086.74;;;0.18;79.40
35291;BME280;21411;50.024;19.220;2023-03-18T03:35:02;99086.02;;;0.13;79.58
35291;BME280;21411;50.024;19.220;2023-03-18T03:37:30;99089.02;;;0.11;79.79
35291;BME280;21411;50.024;19.220;2023-03-18T03:39:57;99091.85;;;0.09;80.03
35291;BME280;21411;50.024;19.220;2023-03-18T03:42:25;99087.95;;;0.05;79.96
35291;BME280;21411;50.024;19.220;2023-03-18T03:44:52;99084.20;;;-0.00;79.97
35291;BME280;21411;50.024;19.220;2023-03-18T03:47:18;99088.16;;;-0.05;80.22
35291;BME280;21411;50.024;19.220;2023-03-18T03:49:46;99092.98;;;-0.10;80.49
35291;BME280;21411;50.024;19.220;2023-03-18T03:52:13;99096.17;;;-0.12;80.60
35291;BME280;21411;50.024;19.220;2023-03-18T03:54:39;99092.66;;;-0.11;80.75
35291;BME280;21411;50.024;19.220;2023-03-18T03:57:07;99094.05;;;-0.11;80.75
35291;BME280;21411;50.024;19.220;2023-03-18T03:59:34;99089.55;;;-0.12;80.95
35291;BME280;21411;50.024;19.220;2023-03-18T04:02:01;99093.76;;;-0.13;81.08
35291;BME280;21411;50.024;19.220;2023-03-18T04:04:34;99095.48;;;-0.12;81.22
35291;BME280;21411;50.024;19.220;2023-03-18T04:07:01;99095.81;;;-0.12;81.35
35291;BME280;21411;50.024;19.220;2023-03-18T04:09:28;99092.16;;;-0.12;81.64
35291;BME280;21411;50.024;19.220;2023-03-18T04:11:55;99094.77;;;-0.12;81.86
35291;BME280;21411;50.024;19.220;2023-03-18T04:14:22;99095.98;;;-0.11;81.97
35291;BME280;21411;50.024;19.220;2023-03-18T04:16:48;99101.91;;;-0.10;82.08
35291;BME280;21411;50.024;19.220;2023-03-18T04:19:15;99101.08;;;-0.12;82.17
35291;BME280;21411;50.024;19.220;2023-03-18T04:21:43;99101.29;;;-0.14;82.36
35291;BME280;21411;50.024;19.220;2023-03-18T04:24:09;99102.71;;;-0.16;82.63
35291;BME280;21411;50.024;19.220;2023-03-18T04:26:36;99100.31;;;-0.17;82.83
35291;BME280;21411;50.024;19.220;2023-03-18T04:29:02;99100.52;;;-0.19;82.92
35291;BME280;21411;50.024;19.220;2023-03-18T04:31:29;99097.40;;;-0.20;83.30
35291;BME280;21411;50.024;19.220;2023-03-18T04:33:57;99102.32;;;-0.21;83.45
35291;BME280;21411;50.024;19.220;2023-03-18T04:36:26;99103.89;;;-0.22;83.46
35291;BME280;21411;50.024;19.220;2023-03-18T04:38:54;99099.73;;;-0.23;83.83
35291;BME280;21411;50.024;19.220;2023-03-18T04:41:21;99101.30;;;-0.23;84.29
35291;BME280;21411;50.024;19.220;2023-03-18T04:43:48;99102.86;;;-0.23;84.35
35291;BME280;21411;50.024;19.220;2023-03-18T04:46:15;99101.63;;;-0.22;84.49
35291;BME280;21411;50.024;19.220;2023-03-18T04:48:42;99101.83;;;-0.23;84.69
35291;BME280;21411;50.024;19.220;2023-03-18T04:51:08;99106.54;;;-0.23;84.87
35291;BME280;21411;50.024;19.220;2023-03-18T04:53:36;99107.63;;;-0.25;84.72
35291;BME280;21411;50.024;19.220;2023-03-18T04:56:03;99109.06;;;-0.27;84.92
35291;BME280;21411;50.024;19.220;2023-03-18T04:58:30;99107.70;;;-0.29;85.25
35291;BME280;21411;50.024;19.220;2023-03-18T05:00:57;99103.55;;;-0.30;85.41
35291;BME280;21411;50.024;19.220;2023-03-18T05:03:24;99107.91;;;-0.30;85.66
35291;BME280;21411;50.024;19.220;2023-03-18T05:05:50;99106.67;;;-0.30;85.87
35291;BME280;21411;50.024;19.220;2023-03-18T05:08:17;99107.69;;;-0.28;86.07
35291;BME280;21411;50.024;19.220;2023-03-18T05:10:44;99111.45;;;-0.24;85.99
35291;BME280;21411;50.024;19.220;2023-03-18T05:13:10;99107.77;;;-0.07;85.87
35291;BME280;21411;50.024;19.220;2023-03-18T05:15:37;99105.09;;;0.19;85.33
35291;BME280;21411;50.024;19.220;2023-03-18T05:18:03;99108.81;;;0.46;84.56
35291;BME280;21411;50.024;19.220;2023-03-18T05:20:30;99113.02;;;0.74;83.80
35291;BME280;21411;50.024;19.220;2023-03-18T05:22:56;99116.95;;;0.91;83.22
35291;BME280;21411;50.024;19.220;2023-03-18T05:25:23;99118.50;;;0.92;83.01
35291;BME280;21411;50.024;19.220;2023-03-18T05:27:50;99119.50;;;0.87;82.88
35291;BME280;21411;50.024;19.220;2023-03-18T05:30:16;99119.63;;;0.82;82.83
35291;BME280;21411;50.024;19.220;2023-03-18T05:32:44;99120.70;;;0.81;82.67
35291;BME280;21411;50.024;19.220;2023-03-18T05:35:11;99120.61;;;0.84;82.63
35291;BME280;21411;50.024;19.220;2023-03-18T05:37:38;99123.40;;;1.06;82.27
35291;BME280;21411;50.024;19.220;2023-03-18T05:40:06;99123.66;;;1.35;81.47
35291;BME280;21411;50.024;19.220;2023-03-18T05:42:37;99118.05;;;1.61;80.83
35291;BME280;21411;50.024;19.220;2023-03-18T05:45:06;99121.80;;;1.70;80.55
35291;BME280;21411;50.024;19.220;2023-03-18T05:47:33;99117.81;;;1.80;80.29
35291;BME280;21411;50.024;19.220;2023-03-18T05:49:59;99119.00;;;2.11;79.52
35291;BME280;21411;50.024;19.220;2023-03-18T05:52:28;99119.98;;;2.42;78.81
35291;BME280;21411;50.024;19.220;2023-03-18T05:54:54;99115.54;;;2.65;77.91
35291;BME280;21411;50.024;19.220;2023-03-18T05:57:21;99111.11;;;2.77;77.55
35291;BME280;21411;50.024;19.220;2023-03-18T05:59:48;99111.04;;;2.95;76.93
35291;BME280;21411;50.024;19.220;2023-03-18T06:02:15;99110.97;;;3.12;76.38
35291;BME280;21411;50.024;19.220;2023-03-18T06:04:41;99113.26;;;3.12;76.09
35291;BME280;21411;50.024;19.220;2023-03-18T06:07:08;99118.30;;;3.08;75.59
35291;BME280;21411;50.024;19.220;2023-03-18T06:09:34;99118.27;;;3.04;75.49
35291;BME280;21411;50.024;19.220;2023-03-18T06:12:02;99119.30;;;3.00;74.87
35291;BME280;21411;50.024;19.220;2023-03-18T06:14:29;99123.48;;;2.95;74.83
35291;BME280;21411;50.024;19.220;2023-03-18T06:16:56;99122.42;;;2.90;74.52
35291;BME280;21411;50.024;19.220;2023-03-18T06:19:23;99126.61;;;2.86;74.36
35291;BME280;21411;50.024;19.220;2023-03-18T06:21:50;99128.57;;;2.85;74.39
35291;BME280;21411;50.024;19.220;2023-03-18T06:24:17;99131.26;;;2.88;74.38
35291;BME280;21411;50.024;19.220;2023-03-18T06:26:44;99136.54;;;2.93;74.43
35291;BME280;21411;50.024;19.220;2023-03-18T06:29:11;99141.54;;;2.96;74.20
35291;BME280;21411;50.024;19.220;2023-03-18T06:31:38;99141.89;;;3.01;74.35
35291;BME280;21411;50.024;19.220;2023-03-18T06:34:04;99140.93;;;3.08;74.32
35291;BME280;21411;50.024;19.220;2023-03-18T06:36:31;99144.44;;;3.14;74.00
35291;BME280;21411;50.024;19.220;2023-03-18T06:38:58;99142.98;;;3.20;73.65
35291;BME280;21411;50.024;19.220;2023-03-18T06:41:25;99144.35;;;3.26;73.33
35291;BME280;21411;50.024;19.220;2023-03-18T06:43:53;99142.69;;;3.34;72.86
35291;BME280;21411;50.024;19.220;2023-03-18T06:46:20;99144.16;;;3.37;72.48
35291;BME280;21411;50.024;19.220;2023-03-18T06:48:46;99144.16;;;3.42;72.45
35291;BME280;21411;50.024;19.220;2023-03-18T06:51:14;99145.84;;;3.54;72.48
35291;BME280;21411;50.024;19.220;2023-03-18T06:53:40;99149.05;;;3.67;72.53
35291;BME280;21411;50.024;19.220;2023-03-18T06:56:07;99155.29;;;3.84;72.33
35291;BME280;21411;50.024;19.220;2023-03-18T06:58:36;99155.21;;;3.95;71.84
35291;BME280;21411;50.024;19.220;2023-03-18T07:01:03;99157.14;;;4.05;71.47
35291;BME280;21411;50.024;19.220;2023-03-18T07:03:29;99160.53;;;4.18;71.23
35291;BME280;21411;50.024;19.220;2023-03-18T07:05:56;99162.20;;;4.29;71.05
35291;BME280;21411;50.024;19.220;2023-03-18T07:08:23;99159.79;;;4.41;70.75
35291;BME280;21411;50.024;19.220;2023-03-18T07:10:53;99160.73;;;4.53;70.62
35291;BME280;21411;50.024;19.220;2023-03-18T07:13:20;99163.23;;;4.61;69.94
35291;BME280;21411;50.024;19.220;2023-03-18T07:15:47;99163.98;;;4.65;69.45
35291;BME280;21411;50.024;19.220;2023-03-18T07:18:14;99166.42;;;4.70;69.19
35291;BME280;21411;50.024;19.220;2023-03-18T07:20:40;99167.36;;;4.77;69.01
35291;BME280;21411;50.024;19.220;2023-03-18T07:23:07;99167.70;;;4.86;68.87
35291;BME280;21411;50.024;19.220;2023-03-18T07:25:35;99169.03;;;4.96;68.56
35291;BME280;21411;50.024;19.220;2023-03-18T07:28:01;99169.55;;;5.05;68.27
35291;BME280;21411;50.024;19.220;2023-03-18T07:30:29;99171.13;;;5.14;68.13
35291;BME280;21411;50.024;19.220;2023-03-18T07:32:55;99168.79;;;5.23;67.79
35291;BME280;21411;50.024;19.220;2023-03-18T07:35:22;99175.98;;;5.32;67.61
35291;BME280;21411;50.024;19.220;2023-03-18T07:37:49;99177.98;;;5.39;67.36
35291;BME280;21411;50.024;19.220;2023-03-18T07:40:16;99179.65;;;5.49;67.01
35291;BME280;21411;50.024;19.220;2023-03-18T07:42:43;99177.56;;;5.61;66.84
35291;BME280;21411;50.024;19.220;2023-03-18T07:45:10;99171.51;;;5.74;66.73
35291;BME280;21411;50.024;19.220;2023-03-18T07:47:37;99172.48;;;5.88;66.32
35291;BME280;21411;50.024;19.220;2023-03-18T07:50:04;99174.38;;;5.97;65.98
35291;BME280;21411;50.024;19.220;2023-03-18T07:52:31;99171.79;;;6.08;65.82
35291;BME280;21411;50.024;19.220;2023-03-18T07:54:57;99170.02;;;6.20;65.43
35291;BME280;21411;50.024;19.220;2023-03-18T07:57:24;99169.23;;;6.32;65.19
35291;BME280;21411;50.024;19.220;2023-03-18T07:59:51;99164.83;;;6.44;64.75
35291;BME280;21411;50.024;19.220;2023-03-18T08:02:18;99165.79;;;6.53;64.45
35291;BME280;21411;50.024;19.220;2023-03-18T08:04:46;99171.60;;;6.61;64.03
35291;BME280;21411;50.024;19.220;2023-03-18T08:07:12;99167.79;;;6.70;63.87
35291;BME280;21411;50.024;19.220;2023-03-18T08:09:39;99167.96;;;6.81;63.71
35291;BME280;21411;50.024;19.220;2023-03-18T08:12:06;99166.83;;;6.94;63.47
35291;BME280;21411;50.024;19.220;2023-03-18T08:14:33;99166.70;;;7.04;63.28
35291;BME280;21411;50.024;19.220;2023-03-18T08:17:01;99163.70;;;7.14;63.06
35291;BME280;21411;50.024;19.220;2023-03-18T08:19:29;99166.83;;;7.26;62.93
35291;BME280;21411;50.024;19.220;2023-03-18T08:21:56;99169.52;;;7.39;62.78
35291;BME280;21411;50.024;19.220;2023-03-18T08:24:23;99167.41;;;7.49;62.49
35291;BME280;21411;50.024;19.220;2023-03-18T08:26:50;99167.56;;;7.59;62.33
35291;BME280;21411;50.024;19.220;2023-03-18T08:29:16;99162.22;;;7.74;61.88
35291;BME280;21411;50.024;19.220;2023-03-18T08:31:43;99156.74;;;7.84;61.42
35291;BME280;21411;50.024;19.220;2023-03-18T08:34:10;99160.61;;;7.94;61.38
35291;BME280;21411;50.024;19.220;2023-03-18T08:36:36;99154.88;;;8.09;61.23
35291;BME280;21411;50.024;19.220;2023-03-18T08:39:03;99153.92;;;8.23;60.98
35291;BME280;21411;50.024;19.220;2023-03-18T08:41:32;99155.50;;;8.33;60.58
35291;BME280;21411;50.024;19.220;2023-03-18T08:44:00;99155.16;;;8.43;60.22
35291;BME280;21411;50.024;19.220;2023-03-18T08:46:27;99151.23;;;8.53;59.95
35291;BME280;21411;50.024;19.220;2023-03-18T08:48:54;99152.11;;;8.66;59.82
35291;BME280;21411;50.024;19.220;2023-03-18T08:51:20;99151.70;;;8.82;59.58
35291;BME280;21411;50.024;19.220;2023-03-18T08:53:50;99150.55;;;9.02;59.27
35291;BME280;21411;50.024;19.220;2023-03-18T08:56:17;99151.98;;;9.17;58.06
35291;BME280;21411;50.024;19.220;2023-03-18T08:58:43;99149.96;;;9.28;57.63
35291;BME280;21411;50.024;19.220;2023-03-18T09:01:11;99143.68;;;9.41;56.89
35291;BME280;21411;50.024;19.220;2023-03-18T09:03:37;99143.48;;;9.53;56.82
35291;BME280;21411;50.024;19.220;2023-03-18T09:06:04;99140.79;;;9.68;56.06
35291;BME280;21411;50.024;19.220;2023-03-18T09:08:31;99141.22;;;9.78;54.62
35291;BME280;21411;50.024;19.220;2023-03-18T09:10:58;99142.02;;;9.85;54.02
35291;BME280;21411;50.024;19.220;2023-03-18T09:13:25;99141.15;;;9.94;53.57
35291;BME280;21411;50.024;19.220;2023-03-18T09:15:52;99140.52;;;10.04;53.25
35291;BME280;21411;50.024;19.220;2023-03-18T09:18:19;99137.91;;;10.12;52.84
35291;BME280;21411;50.024;19.220;2023-03-18T09:20:48;99140.09;;;10.22;52.76
35291;BME280;21411;50.024;19.220;2023-03-18T09:23:14;99139.52;;;10.35;52.18
35291;BME280;21411;50.024;19.220;2023-03-18T09:25:46;99137.86;;;10.47;51.64
35291;BME280;21411;50.024;19.220;2023-03-18T09:28:13;99133.05;;;10.55;51.54
35291;BME280;21411;50.024;19.220;2023-03-18T09:30:40;99132.13;;;10.64;51.12
35291;BME280;21411;50.024;19.220;2023-03-18T09:33:08;99129.30;;;10.75;51.17
35291;BME280;21411;50.024;19.220;2023-03-18T09:35:37;99126.68;;;10.90;51.17
35291;BME280;21411;50.024;19.220;2023-03-18T09:38:04;99123.05;;;11.07;50.83
35291;BME280;21411;50.024;19.220;2023-03-18T09:40:35;99124.27;;;11.18;50.27
35291;BME280;21411;50.024;19.220;2023-03-18T09:51:42;99116.63;;;11.49;48.86
35291;BME280;21411;50.024;19.220;2023-03-18T09:56:44;99111.13;;;11.75;48.37
35291;BME280;21411;50.024;19.220;2023-03-18T10:01:45;99109.58;;;11.95;47.88
35291;BME280;21411;50.024;19.220;2023-03-18T10:04:18;99104.91;;;12.05;47.36
35291;BME280;21411;50.024;19.220;2023-03-18T10:06:48;99104.64;;;12.24;47.65
35291;BME280;21411;50.024;19.220;2023-03-18T10:11:49;99100.42;;;12.38;46.42
35291;BME280;21411;50.024;19.220;2023-03-18T10:19:35;99092.35;;;12.46;45.05
35291;BME280;21411;50.024;19.220;2023-03-18T10:22:31;99093.10;;;12.58;45.85
35291;BME280;21411;50.024;19.220;2023-03-18T10:30:37;99088.87;;;12.74;44.19
35291;BME280;21411;50.024;19.220;2023-03-18T10:33:12;99084.83;;;12.81;43.74
35291;BME280;21411;50.024;19.220;2023-03-18T10:35:48;99083.72;;;12.84;43.63
35291;BME280;21411;50.024;19.220;2023-03-18T10:38:23;99086.33;;;12.91;43.41
35291;BME280;21411;50.024;19.220;2023-03-18T10:40:52;99081.69;;;12.99;42.35
35291;BME280;21411;50.024;19.220;2023-03-18T10:43:25;99081.77;;;13.00;41.96
35291;BME280;21411;50.024;19.220;2023-03-18T10:46:04;99080.75;;;13.00;41.71
35291;BME280;21411;50.024;19.220;2023-03-18T10:48:35;99082.02;;;13.06;41.80
35291;BME280;21411;50.024;19.220;2023-03-18T10:54:12;99076.55;;;13.03;40.88
35291;BME280;21411;50.024;19.220;2023-03-18T10:56:41;99075.77;;;13.01;40.54
35291;BME280;21411;50.024;19.220;2023-03-18T10:59:14;99074.49;;;13.00;40.45
35291;BME280;21411;50.024;19.220;2023-03-18T11:01:44;99073.01;;;13.03;40.28
35291;BME280;21411;50.024;19.220;2023-03-18T11:04:15;99070.93;;;13.02;39.57
35291;BME280;21411;50.024;19.220;2023-03-18T11:06:50;99070.63;;;12.99;39.57
35291;BME280;21411;50.024;19.220;2023-03-18T11:09:21;99070.16;;;13.01;39.37
35291;BME280;21411;50.024;19.220;2023-03-18T11:11:55;99070.02;;;13.09;39.41
35291;BME280;21411;50.024;19.220;2023-03-18T11:14:28;99072.55;;;13.21;39.42
35291;BME280;21411;50.024;19.220;2023-03-18T11:19:27;99065.23;;;13.28;38.80
35291;BME280;21411;50.024;19.220;2023-03-18T11:22:00;99063.19;;;13.33;38.68
35291;BME280;21411;50.024;19.220;2023-03-18T11:24:30;99060.64;;;13.48;38.79
35291;BME280;21411;50.024;19.220;2023-03-18T11:27:23;99050.80;;;13.62;38.53
35291;BME280;21411;50.024;19.220;2023-03-18T11:29:58;99049.89;;;13.76;38.80
35291;BME280;21411;50.024;19.220;2023-03-18T11:32:29;99044.60;;;13.86;38.80
35291;BME280;21411;50.024;19.220;2023-03-18T11:34:59;99043.27;;;14.03;39.16
35291;BME280;21411;50.024;19.220;2023-03-18T11:37:36;99042.05;;;14.20;39.33
35291;BME280;21411;50.024;19.220;2023-03-18T11:42:45;99037.52;;;14.52;38.89
35291;BME280;21411;50.024;19.220;2023-03-18T11:45:26;99034.14;;;14.54;38.39
35291;BME280;21411;50.024;19.220;2023-03-18T11:47:55;99031.11;;;14.56;38.67
35291;BME280;21411;50.024;19.220;2023-03-18T11:50:24;99029.31;;;14.56;38.04
35291;BME280;21411;50.024;19.220;2023-03-18T12:01:32;99019.39;;;14.45;37.46
35291;BME280;21411;50.024;19.220;2023-03-18T12:07:11;99015.23;;;14.42;37.60
35291;BME280;21411;50.024;19.220;2023-03-18T12:09:48;99014.17;;;14.53;37.87
35291;BME280;21411;50.024;19.220;2023-03-18T12:18:21;99002.67;;;14.70;36.97
35291;BME280;21411;50.024;19.220;2023-03-18T12:21:24;99003.48;;;14.72;37.01
35291;BME280;21411;50.024;19.220;2023-03-18T12:26:41;98996.93;;;14.84;37.04
35291;BME280;21411;50.024;19.220;2023-03-18T12:35:05;98988.25;;;15.19;37.58
35291;BME280;21411;50.024;19.220;2023-03-18T12:42:44;98990.94;;;15.33;36.61
35291;BME280;21411;50.024;19.220;2023-03-18T12:45:23;98987.55;;;15.25;36.52
35291;BME280;21411;50.024;19.220;2023-03-18T12:48:15;98988.94;;;15.29;36.67
35291;BME280;21411;50.024;19.220;2023-03-18T12:51:13;98992.06;;;15.28;36.84
35291;BME280;21411;50.024;19.220;2023-03-18T12:53:45;98992.75;;;15.24;36.60
35291;BME280;21411;50.024;19.220;2023-03-18T12:56:25;98987.02;;;15.21;36.56
35291;BME280;21411;50.024;19.220;2023-03-18T12:59:07;98986.09;;;15.17;36.08
35291;BME280;21411;50.024;19.220;2023-03-18T13:01:39;98983.52;;;15.09;35.87
35291;BME280;21411;50.024;19.220;2023-03-18T13:04:14;98982.56;;;15.08;36.47
35291;BME280;21411;50.024;19.220;2023-03-18T13:06:57;98978.86;;;15.05;35.79
35291;BME280;21411;50.024;19.220;2023-03-18T13:09:36;98977.87;;;14.98;35.76
35291;BME280;21411;50.024;19.220;2023-03-18T13:14:59;98975.08;;;14.91;36.10
35291;BME280;21411;50.024;19.220;2023-03-18T13:17:40;98972.16;;;14.87;35.86
35291;BME280;21411;50.024;19.220;2023-03-18T13:20:14;98971.72;;;14.84;35.99
35291;BME280;21411;50.024;19.220;2023-03-18T13:25:25;98965.55;;;14.85;35.57
35291;BME280;21411;50.024;19.220;2023-03-18T13:28:31;98960.75;;;14.88;35.90
35291;BME280;21411;50.024;19.220;2023-03-18T13:39:37;98954.35;;;14.88;35.47
35291;BME280;21411;50.024;19.220;2023-03-18T13:42:12;98950.51;;;14.87;35.34
35291;BME280;21411;50.024;19.220;2023-03-18T13:45:10;98948.65;;;14.90;35.41
35291;BME280;21411;50.024;19.220;2023-03-18T13:47:35;98946.29;;;14.95;35.58
35291;BME280;21411;50.024;19.220;2023-03-18T13:50:21;98941.15;;;14.94;35.77
35291;BME280;21411;50.024;19.220;2023-03-18T13:52:52;98941.30;;;14.92;35.36
35291;BME280;21411;50.024;19.220;2023-03-18T14:01:11;98942.55;;;14.90;34.87
35291;BME280;21411;50.024;19.220;2023-03-18T14:13:43;98930.31;;;14.98;35.59
35291;BME280;21411;50.024;19.220;2023-03-18T14:16:14;98925.44;;;15.00;35.53
35291;BME280;21411;50.024;19.220;2023-03-18T14:21:30;98922.66;;;15.03;34.95
35291;BME280;21411;50.024;19.220;2023-03-18T14:32:03;98910.33;;;15.48;35.48
35291;BME280;21411;50.024;19.220;2023-03-18T14:34:53;98908.11;;;15.55;35.19
35291;BME280;21411;50.024;19.220;2023-03-18T14:37:24;98909.86;;;15.62;35.15
35291;BME280;21411;50.024;19.220;2023-03-18T14:40:05;98909.60;;;15.67;35.41
35291;BME280;21411;50.024;19.220;2023-03-18T14:42:43;98908.79;;;15.74;35.15
35291;BME280;21411;50.024;19.220;2023-03-18T14:45:22;98907.45;;;15.78;34.98
35291;BME280;21411;50.024;19.220;2023-03-18T14:47:54;98902.42;;;15.83;34.70
35291;BME280;21411;50.024;19.220;2023-03-18T14:53:04;98902.02;;;15.85;34.67
35291;BME280;21411;50.024;19.220;2023-03-18T14:55:36;98903.59;;;15.86;34.75
35291;BME280;21411;50.024;19.220;2023-03-18T14:58:03;98902.13;;;15.90;34.78
35291;BME280;21411;50.024;19.220;2023-03-18T15:00:34;98900.34;;;15.90;34.48
35291;BME280;21411;50.024;19.220;2023-03-18T15:03:13;98898.48;;;15.85;34.33
35291;BME280;21411;50.024;19.220;2023-03-18T15:05:45;98899.59;;;15.83;34.22